Time;durP1;ratioP1;P1;durP2;ratioP2;P2;SDS_P1;SDS_P2;PMS_P1;PMS_P2;Temp;Humidity;BMP_temperature;BMP_pressure;BME280_temperature;BME280_humidity;BME280_pressure;Samples;Min_cycle;Max_cycle;Signal;HPM_P1;HPM_P2
2022/02/11 00:09:22;;;;;;;10.68;3.58;;;;;;;10.05;55.86;102206.76;1390758;102;21106;-73
2022/02/11 00:11:49;;;;;;;10.03;3.60;;;;;;;10.07;55.83;102215.44;1396349;102;21198;-72
2022/02/11 00:14:15;;;;;;;8.08;3.90;;;;;;;10.06;55.82;102217.16;1396430;102;21126;-71
2022/02/11 00:16:42;;;;;;;8.18;3.42;;;;;;;10.07;55.84;102215.02;1397647;103;21173;-72
2022/02/11 00:19:09;;;;;;;6.28;3.37;;;;;;;10.08;55.85;102208.93;1389966;102;21202;-72
2022/02/11 00:21:35;;;;;;;10.03;3.90;;;;;;;10.10;55.77;102208.95;1407775;101;21712;-72
2022/02/11 00:24:02;;;;;;;7.45;3.62;;;;;;;10.12;55.77;102205.50;1398120;102;21133;-72
2022/02/11 00:26:33;;;;;;;8.83;3.98;;;;;;;10.12;55.69;102205.96;1421688;100;21129;-72
2022/02/11 00:30:03;;;;;;;8.10;2.98;;;;;;;10.13;55.69;102205.08;1425184;99;21679;-72
2022/02/11 00:34:07;;;;;;;13.18;4.30;;;;;;;10.11;55.74;102205.51;1456304;96;22527;-72
2022/02/11 00:36:49;;;;;;;7.95;3.40;;;;;;;10.11;55.71;102197.70;1481451;95;21069;-72
2022/02/11 00:39:31;;;;;;;6.85;3.83;;;;;;;10.10;55.82;102199.85;1481891;96;21101;-73
2022/02/11 01:03:17;;;;;;;8.50;3.80;;;;;;;10.04;56.19;102149.09;1676254;85;21083;-72
2022/02/11 01:05:34;;;;;;;8.25;3.90;;;;;;;10.03;56.29;102159.08;1676869;85;21049;-73
2022/02/11 01:08:01;;;;;;;7.67;3.50;;;;;;;9.96;56.42;102153.41;1671364;85;21581;-73
2022/02/11 01:10:31;;;;;;;8.15;4.25;;;;;;;10.00;56.46;102161.66;1679333;85;21105;-72
2022/02/11 01:12:57;;;;;;;9.40;3.90;;;;;;;9.91;56.74;102153.84;1672597;85;21521;-72
2022/02/11 01:15:24;;;;;;;8.53;3.83;;;;;;;9.95;56.58;102150.39;1628447;86;21082;-72
2022/02/11 01:17:57;;;;;;;10.28;4.08;;;;;;;9.97;56.59;102143.45;1659604;85;21044;-73
2022/02/11 01:20:30;;;;;;;9.25;3.58;;;;;;;9.96;56.66;102151.69;1664730;85;21038;-72
2022/02/11 01:31:02;;;;;;;10.50;4.37;;;;;;;9.96;56.75;102130.00;1666151;85;21381;-72
2022/02/11 01:33:39;;;;;;;5.97;3.85;;;;;;;9.97;56.66;102122.66;1671070;85;21090;-72
2022/02/11 01:53:32;;;;;;;13.08;5.17;;;;;;;9.87;56.84;102095.75;1676511;85;21009;-72
2022/02/11 01:56:17;;;;;;;;;;;;;;;9.86;56.93;102091.42;1672805;85;21101;-73
2022/02/11 02:09:27;;;;;;;12.00;4.67;;;;;;;9.83;57.07;102076.69;1650991;85;21177;-72
2022/02/11 02:17:37;;;;;;;14.10;5.80;;;;;;;9.85;57.03;102065.86;1673245;85;21545;-72
2022/02/11 02:24:53;;;;;;;10.60;4.37;;;;;;;9.80;57.24;102050.70;1665654;85;21556;-72
2022/02/11 02:27:54;;;;;;;9.35;4.75;;;;;;;9.80;57.26;102042.90;1629102;87;21102;-73
2022/02/11 02:35:45;;;;;;;10.25;4.28;;;;;;;9.79;57.53;102052.84;1610013;88;21018;-71
2022/02/11 02:57:05;;;;;;;8.05;4.30;;;;;;;9.72;57.76;102039.42;1595860;88;21173;-73
2022/02/11 02:59:51;;;;;;;10.90;4.90;;;;;;;9.73;57.85;102055.86;1591122;89;21585;-73
2022/02/11 03:02:11;;;;;;;15.18;5.15;;;;;;;9.72;57.79;102057.61;1597283;88;21545;-73
2022/02/11 04:24:05;;;;;;;9.45;3.50;;;;;;;9.98;54.64;102069.77;1567972;91;21605;-72
2022/02/11 04:55:56;;;;;;;6.55;4.75;;;;;;;9.71;52.97;102076.66;1628753;87;21110;-71
2022/02/11 05:01:08;;;;;;;10.30;5.33;;;;;;;9.65;52.88;102071.44;1668399;85;21520;-72
2022/02/11 05:03:34;;;;;;;7.87;4.80;;;;;;;9.62;52.77;102070.13;1673888;85;22159;-72
2022/02/11 05:06:01;;;;;;;6.12;4.00;;;;;;;9.59;52.59;102058.44;1677262;85;21577;-72
2022/02/11 05:08:28;;;;;;;7.78;3.90;;;;;;;9.56;52.28;102053.21;1676466;85;21053;-72
2022/02/11 05:10:57;;;;;;;8.33;4.25;;;;;;;9.52;52.29;102055.83;1666395;85;21061;-71
2022/02/11 05:13:24;;;;;;;7.47;4.65;;;;;;;9.47;52.30;102058.41;1622303;85;21557;-72
2022/02/11 05:15:50;;;;;;;12.15;4.50;;;;;;;9.44;52.59;102062.27;1645439;86;21053;-72
2022/02/11 05:18:17;;;;;;;6.37;4.17;;;;;;;9.42;52.75;102067.02;1636842;86;21105;-72
2022/02/11 05:20:43;;;;;;;8.73;4.65;;;;;;;9.36;52.86;102062.67;1680284;85;20995;-72
2022/02/11 05:23:12;;;;;;;15.83;5.42;;;;;;;9.36;52.97;102067.87;1673726;85;21049;-72
2022/02/11 05:25:41;;;;;;;9.88;4.75;;;;;;;9.34;53.08;102063.10;1671449;85;21750;-73
2022/02/11 05:28:08;;;;;;;9.90;4.17;;;;;;;9.33;53.26;102062.69;1616374;87;21551;-72
2022/02/11 05:30:36;;;;;;;11.57;3.92;;;;;;;9.32;53.42;102066.55;1627284;86;21036;-72
2022/02/11 05:33:04;;;;;;;9.08;4.20;;;;;;;9.32;53.52;102066.12;1633583;86;21072;-72
2022/02/11 05:35:30;;;;;;;6.05;3.77;;;;;;;9.35;53.61;102067.87;1634912;86;21120;-71
2022/02/11 05:37:58;;;;;;;10.98;4.20;;;;;;;9.36;53.66;102057.48;1634423;87;21532;-72
2022/02/11 05:40:24;;;;;;;10.30;4.15;;;;;;;9.38;53.72;102066.14;1668264;85;21071;-72
2022/02/11 05:42:50;;;;;;;6.12;3.87;;;;;;;9.41;53.64;102060.10;1681411;85;21039;-72
2022/02/11 05:45:19;;;;;;;7.83;3.92;;;;;;;9.43;53.53;102067.05;1632397;86;21646;-72
2022/02/11 05:47:45;;;;;;;7.28;4.00;;;;;;;9.46;53.51;102073.99;1635235;86;21076;-72
2022/02/11 05:50:12;;;;;;;11.70;4.42;;;;;;;9.48;53.54;102080.06;1618924;87;21092;-71
2022/02/11 05:52:38;;;;;;;8.03;4.22;;;;;;;9.50;53.55;102076.58;1679563;85;21475;-72
2022/02/11 05:55:05;;;;;;;7.12;3.45;;;;;;;9.53;53.57;102083.10;1681839;85;21108;-72
2022/02/11 05:57:32;;;;;;;10.05;4.15;;;;;;;9.56;53.59;102089.59;1680885;85;21034;-72
2022/02/11 05:59:59;;;;;;;9.25;4.42;;;;;;;9.60;53.54;102094.39;1672374;85;21032;-72
2022/02/11 06:02:25;;;;;;;6.50;3.27;;;;;;;9.63;53.36;102096.56;1668377;85;21049;-72
2022/02/11 06:04:52;;;;;;;6.58;3.60;;;;;;;9.65;53.45;102092.23;1680359;85;21049;-72
2022/02/11 06:07:18;;;;;;;7.05;4.20;;;;;;;9.68;53.64;102093.56;1678406;85;21077;-72
2022/02/11 06:09:46;;;;;;;6.37;3.67;;;;;;;9.74;53.59;102084.91;1667745;85;21021;-72
2022/02/11 06:12:13;;;;;;;7.62;3.62;;;;;;;9.83;53.73;102085.78;1636109;86;21072;-73
2022/02/11 06:14:41;;;;;;;6.42;3.50;;;;;;;10.00;53.95;102084.94;1665137;85;21060;-72
2022/02/11 06:17:07;;;;;;;7.92;3.83;;;;;;;10.22;53.85;102085.47;1661560;85;21037;-73
2022/02/11 06:19:34;;;;;;;6.42;3.55;;;;;;;10.54;53.31;102087.63;1664613;85;21064;-71
2022/02/11 06:22:02;;;;;;;6.22;3.60;;;;;;;10.86;52.70;102083.23;1673793;85;21525;-72
2022/02/11 06:24:30;;;;;;;7.25;3.62;;;;;;;11.21;51.87;102080.11;1650607;85;21065;-71
2022/02/11 06:26:56;;;;;;;5.83;3.33;;;;;;;11.54;51.18;102080.87;1667976;85;21029;-71
2022/02/11 06:29:23;;;;;;;6.20;3.65;;;;;;;11.83;50.68;102078.55;1645707;86;21041;-72
2022/02/11 06:31:50;;;;;;;7.53;3.65;;;;;;;12.09;49.99;102079.70;1661768;85;21541;-70
2022/02/11 06:34:17;;;;;;;6.65;3.75;;;;;;;12.30;49.53;102070.42;1664099;85;21078;-72
2022/02/11 06:36:44;;;;;;;6.60;3.35;;;;;;;12.46;49.03;102074.63;1678523;85;21034;-72
2022/02/11 06:39:11;;;;;;;4.87;3.67;;;;;;;12.57;48.89;102074.08;1640350;86;21046;-71
2022/02/11 06:41:38;;;;;;;7.28;3.65;;;;;;;12.63;48.91;102074.02;1675987;85;21065;-71
2022/02/11 06:44:04;;;;;;;4.75;3.30;;;;;;;12.69;48.84;102073.99;1654441;85;21017;-72
2022/02/11 06:46:32;;;;;;;7.15;3.55;;;;;;;12.74;48.80;102060.43;1628110;86;21603;-72
2022/02/11 06:48:59;;;;;;;7.87;3.83;;;;;;;12.79;48.74;102062.57;1653292;86;21521;-72
2022/02/11 06:51:25;;;;;;;9.65;4.37;;;;;;;12.86;48.69;102060.30;1651552;86;21568;-71
2022/02/11 06:53:51;;;;;;;7.17;3.80;;;;;;;12.92;48.48;102058.09;1630812;86;21025;-71
2022/02/11 06:56:18;;;;;;;8.68;3.60;;;;;;;12.98;48.43;102054.09;1643248;85;21077;-71
2022/02/11 06:58:45;;;;;;;9.08;4.33;;;;;;;13.02;48.36;102051.41;1659269;85;21566;-71
2022/02/11 07:01:12;;;;;;;12.55;4.87;;;;;;;13.05;48.21;102051.42;1658193;85;21737;-72
2022/02/11 07:03:38;;;;;;;11.05;3.80;;;;;;;13.04;48.14;102045.76;1633756;86;21521;-72
2022/02/11 07:06:05;;;;;;;11.40;4.25;;;;;;;13.01;48.16;102043.16;1668908;85;21578;-71
2022/02/11 07:08:32;;;;;;;11.88;4.00;;;;;;;12.90;48.17;102041.09;1674169;85;21078;-71
2022/02/11 07:10:59;;;;;;;11.78;3.90;;;;;;;12.78;48.39;102045.15;1675596;85;21600;-72
2022/02/11 07:13:26;;;;;;;8.23;4.12;;;;;;;12.66;48.61;102047.89;1637442;86;21037;-72
2022/02/11 07:15:53;;;;;;;6.60;3.77;;;;;;;12.52;48.84;102048.47;1666962;85;21025;-72
2022/02/11 07:18:19;;;;;;;11.60;4.15;;;;;;;12.36;49.14;102041.66;1645116;86;21008;-72
2022/02/11 07:20:46;;;;;;;10.45;3.77;;;;;;;12.21;49.46;102040.47;1661453;85;21017;-72
2022/02/11 07:23:13;;;;;;;10.03;4.33;;;;;;;12.08;49.82;102041.43;1673128;85;21045;-73
2022/02/11 07:25:40;;;;;;;8.48;3.80;;;;;;;11.96;50.28;102045.00;1667765;85;21075;-72
2022/02/11 07:28:07;;;;;;;9.10;3.80;;;;;;;11.84;50.60;102047.70;1638103;86;21065;-71
2022/02/11 07:30:34;;;;;;;9.10;4.67;;;;;;;11.75;51.17;102046.87;1667945;85;21634;-71
2022/02/11 07:33:01;;;;;;;8.40;4.72;;;;;;;11.71;51.33;102043.42;1681874;85;21507;-71
2022/02/11 07:35:27;;;;;;;9.48;4.12;;;;;;;11.70;51.40;102051.27;1674971;85;21562;-72
2022/02/11 07:37:54;;;;;;;9.78;3.90;;;;;;;11.68;51.50;102050.41;1671626;85;21069;-71
2022/02/11 07:40:21;;;;;;;8.63;3.77;;;;;;;11.67;51.63;102049.96;1669801;85;21077;-71
2022/02/11 07:42:51;;;;;;;9.68;4.37;;;;;;;11.65;51.78;102046.03;1668917;85;21579;-72
2022/02/11 07:45:16;;;;;;;9.83;4.05;;;;;;;11.65;51.93;102046.03;1674624;85;21058;-71
2022/02/11 07:47:43;;;;;;;11.18;4.40;;;;;;;11.67;51.99;102048.66;1673272;85;21023;-72
2022/02/11 07:50:09;;;;;;;9.95;4.20;;;;;;;11.69;52.14;102043.00;1680269;85;21049;-71
2022/02/11 07:52:36;;;;;;;9.55;4.05;;;;;;;11.71;52.22;102051.25;1668065;85;21018;-71
2022/02/11 07:55:03;;;;;;;11.93;4.62;;;;;;;11.75;52.16;102046.87;1679496;84;21093;-72
2022/02/11 07:57:30;;;;;;;8.70;4.37;;;;;;;11.75;52.13;102033.83;1676439;85;21039;-71
2022/02/11 07:59:56;;;;;;;9.08;4.75;;;;;;;11.75;52.28;102039.05;1659101;85;21036;-71
2022/02/11 08:02:23;;;;;;;9.05;5.00;;;;;;;11.77;52.38;102039.90;1653072;86;21051;-71
2022/02/11 08:04:49;;;;;;;8.90;4.92;;;;;;;11.80;52.31;102032.95;1681063;85;21040;-71
2022/02/11 08:07:16;;;;;;;8.85;4.70;;;;;;;11.83;52.35;102033.37;1675468;85;21132;-71
2022/02/11 08:09:43;;;;;;;7.92;4.70;;;;;;;11.85;52.43;102033.77;1615356;85;21112;-72
2022/02/11 08:12:11;;;;;;;10.32;4.95;;;;;;;11.88;52.30;102031.58;1671274;85;21010;-71
2022/02/11 08:14:39;;;;;;;12.13;4.85;;;;;;;11.89;52.49;102030.26;1629802;87;21137;-72
2022/02/11 08:17:05;;;;;;;9.35;4.15;;;;;;;11.93;52.57;102029.82;1662269;85;20990;-72
2022/02/11 08:19:32;;;;;;;10.63;4.33;;;;;;;11.96;52.73;102030.66;1662372;85;21080;-71
2022/02/11 08:22:00;;;;;;;8.40;4.53;;;;;;;12.01;52.72;102029.33;1637473;87;21098;-71
2022/02/11 08:24:27;;;;;;;6.55;3.80;;;;;;;12.07;52.73;102029.28;1667811;85;21005;-70
2022/02/11 08:26:53;;;;;;;10.38;4.47;;;;;;;12.12;52.84;102030.09;1664209;85;21081;-71
2022/02/11 08:31:48;;;;;;;8.03;4.10;;;;;;;12.24;52.84;102032.63;1573710;90;21641;-71
2022/02/11 08:34:14;;;;;;;11.15;4.35;;;;;;;12.31;52.73;102029.07;1566949;90;21069;-70
2022/02/11 08:36:41;;;;;;;11.00;4.33;;;;;;;12.37;52.77;102027.70;1575301;90;21564;-70
2022/02/11 08:39:09;;;;;;;7.25;4.17;;;;;;;12.45;52.54;102027.20;1578226;90;21058;-71
2022/02/11 08:41:37;;;;;;;9.20;3.87;;;;;;;12.50;52.39;102031.95;1557885;91;21173;-70
2022/02/11 08:44:04;;;;;;;8.60;4.37;;;;;;;12.57;52.27;102029.69;1563162;91;21079;-72
2022/02/11 08:46:31;;;;;;;10.18;4.35;;;;;;;12.62;52.07;102030.52;1576471;90;21147;-70
2022/02/11 08:48:58;;;;;;;6.15;3.37;;;;;;;12.65;51.83;102025.25;1570027;91;21291;-71
2022/02/11 08:51:25;;;;;;;10.28;3.42;;;;;;;12.67;51.84;102026.13;1573356;91;21061;-71
2022/02/11 08:53:51;;;;;;;10.23;4.33;;;;;;;12.69;51.85;102021.76;1565010;91;21099;-70
2022/02/11 08:56:18;;;;;;;7.25;3.70;;;;;;;12.69;51.75;102024.38;1572273;89;21631;-71
2022/02/11 08:58:44;;;;;;;7.95;3.50;;;;;;;12.69;51.63;102024.38;1575372;91;21070;-72
2022/02/11 09:01:11;;;;;;;8.35;3.30;;;;;;;12.68;51.59;102023.93;1569552;91;21123;-70
2022/02/11 09:03:39;;;;;;;6.85;3.75;;;;;;;12.67;51.58;102016.99;1570382;90;21575;-71
2022/02/11 09:06:06;;;;;;;7.22;3.37;;;;;;;12.64;51.58;102019.63;1569718;90;21066;-71
2022/02/11 09:08:35;;;;;;;7.62;3.45;;;;;;;12.63;51.51;102013.95;1562766;90;21091;-72
2022/02/11 09:11:05;;;;;;;8.23;3.62;;;;;;;12.58;51.40;102017.50;1569393;91;21053;-70
2022/02/11 09:13:31;;;;;;;9.00;3.15;;;;;;;12.50;51.61;102020.20;1552259;91;21054;-71
2022/02/11 09:15:58;;;;;;;9.28;3.52;;;;;;;12.42;51.79;102016.80;1542004;92;21142;-71
2022/02/11 09:18:25;;;;;;;7.95;3.72;;;;;;;12.39;51.91;102016.81;1557661;91;21141;-70
2022/02/11 09:20:52;;;;;;;6.90;3.80;;;;;;;12.35;52.12;102007.28;1572314;90;21105;-70
2022/02/11 09:23:20;;;;;;;6.53;3.12;;;;;;;12.34;52.05;102008.17;1573929;90;21058;-72
2022/02/11 09:25:47;;;;;;;6.45;3.35;;;;;;;12.33;52.07;102014.27;1540555;91;21096;-71
2022/02/11 09:28:13;;;;;;;6.95;3.37;;;;;;;12.27;52.09;102009.09;1568002;88;21565;-71
2022/02/11 09:30:42;;;;;;;6.97;3.85;;;;;;;12.23;52.35;102013.92;1678728;85;21500;-70
2022/02/11 09:33:09;;;;;;;10.95;3.98;;;;;;;12.20;52.26;102011.32;1680696;85;21041;-72
2022/02/11 09:35:36;;;;;;;7.97;3.72;;;;;;;12.17;52.45;102011.36;1644405;85;21521;-70
2022/02/11 09:38:03;;;;;;;7.67;3.50;;;;;;;12.15;52.58;102003.55;1622991;86;21080;-71
2022/02/11 09:40:29;;;;;;;8.58;3.77;;;;;;;12.15;52.63;102000.08;1676265;85;21054;-71
2022/02/11 09:42:56;;;;;;;8.98;3.72;;;;;;;12.14;52.60;102000.94;1652714;85;21148;-71
2022/02/11 09:45:25;;;;;;;12.95;3.83;;;;;;;12.13;52.82;102001.40;1620777;87;21073;-71
2022/02/11 09:47:51;;;;;;;10.25;3.87;;;;;;;12.15;52.89;101993.12;1638317;87;21049;-71
2022/02/11 09:50:20;;;;;;;5.83;3.40;;;;;;;12.21;52.93;101991.77;1625781;87;21191;-71
2022/02/11 09:52:52;;;;;;;10.68;4.30;;;;;;;12.28;52.85;101994.31;1633109;85;21041;-71
2022/02/11 09:55:34;;;;;;;8.43;3.42;;;;;;;12.34;52.75;101996.44;1668352;84;21004;-70
2022/02/11 09:58:11;;;;;;;12.70;4.12;;;;;;;12.40;52.59;101991.16;1653222;85;21540;-70
2022/02/11 10:00:40;;;;;;;7.35;4.30;;;;;;;12.47;52.61;101985.44;1665280;85;21549;-71
2022/02/11 10:03:29;;;;;;;7.20;3.58;;;;;;;12.53;52.45;101977.08;1677182;85;21005;-70
2022/02/11 10:06:05;;;;;;;10.00;4.25;;;;;;;12.61;52.28;101981.77;1657661;85;21573;-70
2022/02/11 10:08:36;;;;;;;13.28;3.52;;;;;;;12.66;52.18;101974.77;1652409;86;21500;-71
2022/02/11 10:11:03;;;;;;;11.48;4.72;;;;;;;12.73;51.89;101976.45;1672932;85;21006;-71
2022/02/11 10:13:33;;;;;;;10.60;4.33;;;;;;;12.76;51.80;101972.48;1676149;85;21069;-71
2022/02/11 10:16:09;;;;;;;9.03;4.20;;;;;;;12.80;51.73;101972.86;1667452;86;21015;-71
2022/02/11 10:18:42;;;;;;;9.10;4.53;;;;;;;12.83;51.41;101970.66;1579024;88;21179;-70
2022/02/11 10:23:43;;;;;;;5.45;3.22;;;;;;;12.81;51.11;101963.28;1582049;90;21118;-71
2022/02/11 10:26:16;;;;;;;7.47;4.05;;;;;;;12.77;51.14;101962.47;1570458;90;21071;-71
2022/02/11 10:28:53;;;;;;;10.10;4.53;;;;;;;12.75;51.21;101959.01;1572017;91;21110;-72
2022/02/11 10:31:30;;;;;;;8.68;3.98;;;;;;;12.75;51.33;101950.30;1533546;92;21130;-70
2022/02/11 10:34:11;;;;;;;8.83;4.03;;;;;;;12.76;51.33;101951.58;1536151;93;22640;-71
2022/02/11 10:36:48;;;;;;;4.70;3.12;;;;;;;12.78;51.32;101951.13;1513221;93;21047;-72
2022/02/11 10:39:20;;;;;;;10.25;5.05;;;;;;;12.81;51.35;101946.31;1506666;93;21593;-71
2022/02/11 10:41:55;;;;;;;8.40;3.62;;;;;;;12.83;51.32;101946.72;1484180;95;21096;-72
2022/02/11 10:44:29;;;;;;;8.90;4.33;;;;;;;12.88;51.16;101942.75;1498469;94;21054;-69
2022/02/11 10:47:00;;;;;;;8.10;3.92;;;;;;;12.91;51.06;101944.88;1390627;101;21225;-71
2022/02/11 10:49:40;;;;;;;9.58;4.08;;;;;;;12.95;51.08;101946.56;1388974;102;21198;-72
2022/02/11 10:52:23;;;;;;;8.48;3.77;;;;;;;13.00;50.91;101947.35;1317037;106;21283;-71
2022/02/11 10:54:53;;;;;;;5.22;3.47;;;;;;;13.03;50.76;101943.41;1343287;105;21206;-71
2022/02/11 10:57:27;;;;;;;9.48;3.27;;;;;;;13.05;50.68;101937.75;1331791;105;21153;-71
2022/02/11 10:59:54;;;;;;;7.22;3.33;;;;;;;13.05;50.57;101937.75;1301368;109;21714;-72
2022/02/11 11:02:23;;;;;;;5.42;3.40;;;;;;;13.05;50.61;101942.98;1323663;106;21167;-70
2022/02/11 11:04:54;;;;;;;5.53;3.42;;;;;;;13.03;50.55;101929.47;1335020;106;21199;-72
2022/02/11 11:07:25;;;;;;;6.12;3.27;;;;;;;12.99;50.58;101922.13;1334610;107;21158;-71
2022/02/11 11:09:54;;;;;;;8.33;4.37;;;;;;;12.97;50.59;101925.20;1352160;105;21198;-71
2022/02/11 11:12:25;;;;;;;8.80;4.40;;;;;;;12.94;50.87;101926.53;1356689;105;21159;-71
2022/02/11 11:14:54;;;;;;;;;;;;;;;12.93;50.84;101930.05;1301497;107;21231;-71
2022/02/11 11:17:20;;;;;;;7.20;3.22;;;;;;;12.95;50.95;101920.44;1282567;110;20489;-71
2022/02/11 11:19:49;;;;;;;7.80;3.70;;;;;;;12.99;51.08;101920.82;1290516;109;21257;-72
2022/02/11 11:22:19;;;;;;;8.33;3.62;;;;;;;13.06;50.92;101915.95;1294809;109;21234;-71
2022/02/11 11:24:54;;;;;;;7.70;3.42;;;;;;;13.11;50.66;101916.36;1297629;109;21270;-71
2022/02/11 11:27:51;;;;;;;8.05;3.75;;;;;;;13.16;50.52;101910.61;1297191;108;21291;-71
2022/02/11 11:30:40;;;;;;;5.97;3.98;;;;;;;13.18;50.46;101908.84;1309463;108;21214;-72
2022/02/11 11:33:12;;;;;;;7.33;3.52;;;;;;;13.20;50.43;101903.15;1348352;105;21245;-72
2022/02/11 11:35:49;;;;;;;6.90;3.30;;;;;;;13.20;50.33;101907.94;1339590;105;21178;-71
2022/02/11 11:38:22;;;;;;;6.15;3.45;;;;;;;13.21;50.13;101905.73;1352642;105;21189;-72
2022/02/11 11:41:14;;;;;;;6.40;3.42;;;;;;;13.20;49.99;101904.45;1354612;105;21135;-71
2022/02/11 11:43:50;;;;;;;5.65;3.80;;;;;;;13.16;49.94;101900.16;1377683;98;21593;-71
2022/02/11 11:46:22;;;;;;;7.42;4.03;;;;;;;13.08;50.18;101902.42;1402501;100;21252;-71
2022/02/11 11:49:03;;;;;;;6.37;3.47;;;;;;;13.06;50.20;101898.97;1406828;100;21131;-72
2022/02/11 11:51:40;;;;;;;7.40;3.87;;;;;;;13.09;50.44;101899.38;1405075;101;21127;-70
2022/02/11 11:54:23;;;;;;;7.83;3.72;;;;;;;13.14;50.52;101898.88;1387098;102;21124;-71
2022/02/11 11:57:10;;;;;;;7.00;3.83;;;;;;;13.19;50.44;101900.12;1403311;99;21088;-71
2022/02/11 11:59:46;;;;;;;6.95;3.80;;;;;;;13.28;50.34;101899.98;1432725;99;21617;-71
2022/02/11 12:02:28;;;;;;;4.75;3.83;;;;;;;13.34;50.15;101894.22;1437084;98;21141;-71
2022/02/11 12:04:58;;;;;;;9.43;3.75;;;;;;;13.40;49.91;101889.33;1414852;100;21613;-71
2022/02/11 12:10:05;;;;;;;6.58;3.47;;;;;;;13.41;49.77;101887.16;1392205;102;21124;-70
2022/02/11 12:12:36;;;;;;;9.30;3.58;;;;;;;13.42;49.77;101892.78;1420107;97;21074;-71
2022/02/11 12:15:06;;;;;;;7.05;3.67;;;;;;;13.39;49.82;101890.23;1432643;97;21650;-72
2022/02/11 12:17:32;;;;;;;10.00;3.85;;;;;;;13.37;50.01;101894.63;1433139;97;21705;-72
2022/02/11 12:19:59;;;;;;;6.67;4.30;;;;;;;13.37;49.96;101890.70;1435392;97;21647;-71
2022/02/11 12:22:30;;;;;;;8.00;3.77;;;;;;;13.35;49.86;101890.73;1468876;97;21135;-72
2022/02/11 12:27:48;;;;;;;6.30;3.58;;;;;;;13.35;49.95;101890.73;1468901;97;21610;-69
2022/02/11 12:30:23;;;;;;;6.97;3.70;;;;;;;13.37;49.99;101899.86;1465259;98;21113;-70
2022/02/11 12:32:55;;;;;;;8.03;3.77;;;;;;;13.39;50.01;101898.08;1489434;95;21099;-69
2022/02/11 12:35:29;;;;;;;5.90;3.98;;;;;;;13.39;49.89;101895.47;1490531;95;21080;-70
2022/02/11 12:37:59;;;;;;;7.25;3.77;;;;;;;13.38;49.79;101893.72;1490605;95;21623;-69
2022/02/11 12:40:31;;;;;;;6.53;4.03;;;;;;;13.37;49.74;101892.01;1490684;95;21628;-70
2022/02/11 12:43:06;;;;;;;7.22;3.80;;;;;;;13.34;49.82;101892.05;1529326;92;21549;-71
2022/02/11 12:45:39;;;;;;;7.87;3.30;;;;;;;13.30;49.99;101892.97;1534367;93;21093;-70
2022/02/11 12:48:13;;;;;;;6.08;3.40;;;;;;;13.28;50.05;101889.52;1512227;93;21093;-70
2022/02/11 12:50:43;;;;;;;7.70;4.15;;;;;;;13.27;50.10;101893.03;1490432;94;21665;-70
2022/02/11 12:53:14;;;;;;;8.48;4.25;;;;;;;13.26;50.25;101888.68;1444060;98;21142;-71
2022/02/11 12:55:41;;;;;;;9.03;3.62;;;;;;;13.26;50.20;101892.60;1464364;97;21064;-70
2022/02/11 12:58:11;;;;;;;10.43;4.20;;;;;;;13.28;50.11;101889.52;1460479;96;21121;-71
2022/02/11 13:00:39;;;;;;;6.83;4.00;;;;;;;13.29;50.20;101892.57;1476722;95;21501;-70
2022/02/11 13:03:07;;;;;;;8.38;4.35;;;;;;;13.29;50.23;101891.27;1453887;97;21100;-71
2022/02/11 13:05:44;;;;;;;6.67;3.90;;;;;;;13.29;50.19;101891.27;1475134;95;21097;-70
2022/02/11 13:08:26;;;;;;;6.97;3.90;;;;;;;13.31;50.15;101892.11;1472962;96;21694;-71
2022/02/11 13:11:06;;;;;;;8.28;4.33;;;;;;;13.30;50.03;101887.75;1468591;96;21723;-70
2022/02/11 13:13:32;;;;;;;6.80;3.75;;;;;;;13.28;50.11;101885.59;1467670;97;21120;-70
2022/02/11 13:16:03;;;;;;;8.55;4.42;;;;;;;13.25;50.17;101894.81;1467618;96;21116;-71
2022/02/11 13:18:31;;;;;;;6.53;4.05;;;;;;;13.23;50.29;101893.97;1458325;97;21657;-72
2022/02/11 13:23:32;;;;;;;6.22;3.72;;;;;;;13.22;50.22;101890.92;1403059;100;21689;-71
2022/02/11 13:25:59;;;;;;;8.10;3.35;;;;;;;13.21;50.22;101883.98;1409992;100;21116;-72
2022/02/11 13:28:27;;;;;;;8.23;3.58;;;;;;;13.17;50.19;101885.75;1412063;100;21112;-70
2022/02/11 13:30:59;;;;;;;8.60;3.92;;;;;;;13.12;50.39;101890.63;1373771;103;21613;-71
2022/02/11 13:33:34;;;;;;;6.95;3.60;;;;;;;13.03;50.56;101879.39;1336064;105;21286;-71
2022/02/11 13:36:10;;;;;;;7.58;4.30;;;;;;;12.98;50.76;101878.58;1378643;103;21116;-71
2022/02/11 13:38:44;;;;;;;6.25;3.52;;;;;;;12.91;51.00;101883.48;1379686;103;21104;-70
2022/02/11 13:41:12;;;;;;;7.85;4.30;;;;;;;12.86;51.13;101878.75;1380213;103;21260;-71
2022/02/11 13:43:55;;;;;;;7.08;3.98;;;;;;;12.81;51.28;101880.58;1377069;103;21177;-72
2022/02/11 13:46:37;;;;;;;8.75;4.55;;;;;;;12.77;51.44;101877.59;1424159;98;21597;-71
2022/02/11 13:49:11;;;;;;;9.13;4.58;;;;;;;12.73;51.67;101882.42;1429315;97;21137;-71
2022/02/11 13:51:39;;;;;;;10.28;4.53;;;;;;;12.70;51.87;101883.76;1470163;96;21133;-71
2022/02/11 13:54:14;;;;;;;9.93;4.67;;;;;;;12.72;51.89;101891.13;1475703;95;21114;-72
2022/02/11 13:56:45;;;;;;;7.35;4.12;;;;;;;12.74;51.89;101888.05;1452673;98;21136;-72
2022/02/11 13:59:15;;;;;;;10.43;4.55;;;;;;;12.78;51.78;101890.17;1448762;97;21647;-71
2022/02/11 14:01:45;;;;;;;6.72;4.20;;;;;;;12.79;51.63;101879.73;1420572;99;21110;-70
2022/02/11 14:04:16;;;;;;;6.53;4.83;;;;;;;12.82;51.46;101880.98;1434444;96;21128;-71
2022/02/11 14:06:55;;;;;;;9.65;4.72;;;;;;;12.86;51.33;101881.80;1478818;96;21158;-72
2022/02/11 14:09:41;;;;;;;10.38;5.53;;;;;;;12.90;51.29;101880.91;1482709;95;21254;-71
2022/02/11 14:12:22;;;;;;;6.72;5.00;;;;;;;12.94;51.02;101880.81;1477447;96;21197;-71
2022/02/11 14:14:57;;;;;;;8.47;5.00;;;;;;;12.99;50.66;101881.63;1472397;95;21131;-71
2022/02/11 14:17:27;;;;;;;6.70;4.85;;;;;;;13.02;50.41;101865.89;1451172;98;21133;-71
2022/02/11 14:19:53;;;;;;;10.40;5.65;;;;;;;13.04;50.36;101873.30;1458399;96;21108;-72
2022/02/11 14:22:20;;;;;;;6.75;5.22;;;;;;;13.06;50.16;101879.37;1497822;95;21139;-71
2022/02/11 14:24:47;;;;;;;10.82;5.65;;;;;;;13.04;50.03;101882.45;1510664;94;21139;-71
2022/02/11 14:27:13;;;;;;;8.43;5.30;;;;;;;13.03;49.92;101879.39;1492302;95;21568;-72
2022/02/11 14:29:40;;;;;;;9.03;5.00;;;;;;;13.01;49.86;101885.09;1514098;94;21598;-71
2022/02/11 14:32:08;;;;;;;12.23;4.67;;;;;;;12.96;49.97;101876.43;1515489;94;21634;-70
2022/02/11 14:34:34;;;;;;;8.25;4.65;;;;;;;12.92;50.11;101878.66;1508781;94;21098;-71
2022/02/11 14:37:02;;;;;;;7.72;4.05;;;;;;;12.86;50.40;101889.20;1502166;95;21603;-71
2022/02/11 14:39:29;;;;;;;8.70;4.42;;;;;;;12.78;50.59;101888.44;1546998;92;21076;-71
2022/02/11 14:42:00;;;;;;;11.80;4.83;;;;;;;12.71;50.82;101884.20;1547436;92;21060;-70
2022/02/11 14:44:26;;;;;;;8.53;4.72;;;;;;;12.65;51.14;101880.79;1542369;92;21605;-71
2022/02/11 14:46:58;;;;;;;10.55;4.83;;;;;;;12.60;51.28;101887.80;1569454;89;21108;-71
2022/02/11 14:49:25;;;;;;;;;;;;;;;12.56;51.49;101885.67;1578955;89;21116;-71
2022/02/11 14:52:06;;;;;;;8.08;5.20;;;;;;;12.54;51.48;101887.44;1561141;89;20145;-71
2022/02/11 14:54:35;;;;;;;9.73;5.35;;;;;;;12.51;51.50;101893.98;1556831;91;21596;-71
2022/02/11 14:57:03;;;;;;;8.60;4.67;;;;;;;12.48;51.42;101892.73;1547809;91;21176;-72
2022/02/11 14:59:29;;;;;;;7.95;4.50;;;;;;;12.45;51.54;101901.89;1553087;91;21077;-71
2022/02/11 15:01:56;;;;;;;7.58;4.60;;;;;;;12.42;51.60;101905.86;1555611;91;21056;-71
2022/02/11 15:04:24;;;;;;;6.05;4.53;;;;;;;12.38;51.88;101910.69;1600706;87;21041;-71
2022/02/11 15:09:20;;;;;;;10.35;4.97;;;;;;;12.25;52.18;101909.08;1595035;88;21116;-71
2022/02/11 15:11:47;;;;;;;6.87;4.50;;;;;;;12.20;52.27;101905.64;1606019;88;21052;-73
2022/02/11 15:14:14;;;;;;;8.40;4.72;;;;;;;12.13;52.35;101904.86;1600315;88;21016;-71
2022/02/11 15:16:42;;;;;;;9.30;5.25;;;;;;;12.09;52.54;101907.52;1607875;88;21069;-71
2022/02/11 15:19:10;;;;;;;12.65;6.62;;;;;;;12.03;52.39;101911.05;1611130;88;21065;-72
2022/02/11 15:21:37;;;;;;;9.80;7.33;;;;;;;11.98;52.31;101906.73;1596748;88;21065;-71
2022/02/11 15:24:05;;;;;;;12.03;8.73;;;;;;;11.94;52.23;101916.77;1611399;89;21009;-71
2022/02/11 15:26:32;;;;;;;11.88;8.90;;;;;;;11.93;52.14;101913.75;1608323;89;21060;-71